sensor_id;sensor_type;location;lat;lon;timestamp;temperature;humidity
29007;DHT22;16104;48.642;9.008;2023-07-13T00:00:26;22.70;47.60
29007;DHT22;16104;48.642;9.008;2023-07-13T01:01:20;21.80;47.60
29007;DHT22;16104;48.642;9.008;2023-07-13T01:06:16;21.70;47.80
29007;DHT22;16104;48.642;9.008;2023-07-13T01:11:18;21.70;47.70
29007;DHT22;16104;48.642;9.008;2023-07-13T02:04:06;21.00;48.70
29007;DHT22;16104;48.642;9.008;2023-07-13T02:09:02;21.00;48.60
29007;DHT22;16104;48.642;9.008;2023-07-13T02:13:59;20.90;48.90
29007;DHT22;16104;48.642;9.008;2023-07-13T03:04:44;20.40;49.50
29007;DHT22;16104;48.642;9.008;2023-07-13T03:09:40;20.40;49.70
29007;DHT22;16104;48.642;9.008;2023-07-13T03:14:35;20.30;49.70
29007;DHT22;16104;48.642;9.008;2023-07-13T03:19:31;20.20;49.60
29007;DHT22;16104;48.642;9.008;2023-07-13T03:24:26;20.20;49.80
29007;DHT22;16104;48.642;9.008;2023-07-13T03:29:22;20.20;49.80
29007;DHT22;16104;48.642;9.008;2023-07-13T03:34:17;20.20;49.90
29007;DHT22;16104;48.642;9.008;2023-07-13T03:39:13;20.20;50.10
29007;DHT22;16104;48.642;9.008;2023-07-13T03:44:08;20.20;50.30
29007;DHT22;16104;48.642;9.008;2023-07-13T03:49:05;20.20;50.40
29007;DHT22;16104;48.642;9.008;2023-07-13T03:54:01;20.20;50.40
29007;DHT22;16104;48.642;9.008;2023-07-13T03:58:58;20.20;50.40
29007;DHT22;16104;48.642;9.008;2023-07-13T04:03:53;20.20;50.40
29007;DHT22;16104;48.642;9.008;2023-07-13T04:08:50;20.20;50.60
29007;DHT22;16104;48.642;9.008;2023-07-13T04:13:47;20.20;50.80
29007;DHT22;16104;48.642;9.008;2023-07-13T04:18:43;20.20;50.80
29007;DHT22;16104;48.642;9.008;2023-07-13T04:23:38;20.20;50.90
29007;DHT22;16104;48.642;9.008;2023-07-13T04:28:34;20.20;51.10
29007;DHT22;16104;48.642;9.008;2023-07-13T04:33:30;20.20;51.10
29007;DHT22;16104;48.642;9.008;2023-07-13T04:38:29;20.20;51.00
29007;DHT22;16104;48.642;9.008;2023-07-13T04:43:25;20.20;51.40
29007;DHT22;16104;48.642;9.008;2023-07-13T04:48:21;20.20;51.50
29007;DHT22;16104;48.642;9.008;2023-07-13T04:53:16;20.20;51.50
29007;DHT22;16104;48.642;9.008;2023-07-13T04:58:12;20.20;51.40
29007;DHT22;16104;48.642;9.008;2023-07-13T05:03:07;20.20;51.20
29007;DHT22;16104;48.642;9.008;2023-07-13T05:08:03;20.20;52.00
29007;DHT22;16104;48.642;9.008;2023-07-13T05:12:59;20.20;51.20
29007;DHT22;16104;48.642;9.008;2023-07-13T05:17:54;20.20;51.00
29007;DHT22;16104;48.642;9.008;2023-07-13T05:22:50;20.30;51.20
29007;DHT22;16104;48.642;9.008;2023-07-13T05:27:45;20.30;51.20
29007;DHT22;16104;48.642;9.008;2023-07-13T05:32:42;20.40;51.90
29007;DHT22;16104;48.642;9.008;2023-07-13T05:37:37;20.40;52.20
29007;DHT22;16104;48.642;9.008;2023-07-13T05:42:33;20.50;52.50
29007;DHT22;16104;48.642;9.008;2023-07-13T05:47:29;20.50;52.50
29007;DHT22;16104;48.642;9.008;2023-07-13T05:52:25;20.50;52.80
29007;DHT22;16104;48.642;9.008;2023-07-13T05:57:20;20.60;52.90
29007;DHT22;16104;48.642;9.008;2023-07-13T06:02:16;20.60;52.70
29007;DHT22;16104;48.642;9.008;2023-07-13T06:07:11;20.60;52.60
29007;DHT22;16104;48.642;9.008;2023-07-13T06:12:07;20.70;52.30
29007;DHT22;16104;48.642;9.008;2023-07-13T06:17:03;20.70;52.70
29007;DHT22;16104;48.642;9.008;2023-07-13T06:21:58;20.80;52.40
29007;DHT22;16104;48.642;9.008;2023-07-13T06:26:54;20.90;52.00
29007;DHT22;16104;48.642;9.008;2023-07-13T06:31:49;21.00;50.90
29007;DHT22;16104;48.642;9.008;2023-07-13T06:36:45;21.20;50.10
29007;DHT22;16104;48.642;9.008;2023-07-13T06:41:40;21.40;50.00
29007;DHT22;16104;48.642;9.008;2023-07-13T06:46:36;21.50;49.50
29007;DHT22;16104;48.642;9.008;2023-07-13T06:51:32;21.60;49.90
29007;DHT22;16104;48.642;9.008;2023-07-13T06:56:27;21.80;48.70
29007;DHT22;16104;48.642;9.008;2023-07-13T07:01:23;21.90;48.80
29007;DHT22;16104;48.642;9.008;2023-07-13T07:06:20;22.10;48.60
29007;DHT22;16104;48.642;9.008;2023-07-13T07:11:21;22.30;47.50
29007;DHT22;16104;48.642;9.008;2023-07-13T07:16:17;22.50;46.60
29007;DHT22;16104;48.642;9.008;2023-07-13T07:21:13;22.70;46.30
29007;DHT22;16104;48.642;9.008;2023-07-13T07:26:09;22.80;46.00
29007;DHT22;16104;48.642;9.008;2023-07-13T07:31:05;23.00;45.90
29007;DHT22;16104;48.642;9.008;2023-07-13T07:36:01;23.10;44.60
29007;DHT22;16104;48.642;9.008;2023-07-13T07:40:57;23.30;44.80
29007;DHT22;16104;48.642;9.008;2023-07-13T07:45:52;23.40;45.10
29007;DHT22;16104;48.642;9.008;2023-07-13T07:50:48;23.50;43.20
29007;DHT22;16104;48.642;9.008;2023-07-13T07:55:44;23.70;42.80
29007;DHT22;16104;48.642;9.008;2023-07-13T08:00:40;23.80;42.00
29007;DHT22;16104;48.642;9.008;2023-07-13T08:05:36;24.00;42.40
29007;DHT22;16104;48.642;9.008;2023-07-13T08:10:35;24.10;41.70
29007;DHT22;16104;48.642;9.008;2023-07-13T08:15:30;24.30;41.70
29007;DHT22;16104;48.642;9.008;2023-07-13T08:20:26;24.50;41.50
29007;DHT22;16104;48.642;9.008;2023-07-13T08:25:21;24.60;41.30
29007;DHT22;16104;48.642;9.008;2023-07-13T08:30:18;24.80;41.40
29007;DHT22;16104;48.642;9.008;2023-07-13T08:35:13;24.90;40.90
29007;DHT22;16104;48.642;9.008;2023-07-13T08:40:11;25.00;40.70
29007;DHT22;16104;48.642;9.008;2023-07-13T08:50:12;25.40;39.40
29007;DHT22;16104;48.642;9.008;2023-07-13T08:55:13;25.50;39.30
29007;DHT22;16104;48.642;9.008;2023-07-13T09:00:11;25.70;38.70
29007;DHT22;16104;48.642;9.008;2023-07-13T09:05:29;25.90;38.60
29007;DHT22;16104;48.642;9.008;2023-07-13T09:10:29;26.00;37.20
29007;DHT22;16104;48.642;9.008;2023-07-13T09:15:30;26.20;37.10
29007;DHT22;16104;48.642;9.008;2023-07-13T09:20:42;26.40;36.80
29007;DHT22;16104;48.642;9.008;2023-07-13T09:25:40;26.60;36.10
29007;DHT22;16104;48.642;9.008;2023-07-13T09:30:46;26.80;35.50
29007;DHT22;16104;48.642;9.008;2023-07-13T09:35:44;27.00;35.20
29007;DHT22;16104;48.642;9.008;2023-07-13T09:40:44;27.10;34.90
29007;DHT22;16104;48.642;9.008;2023-07-13T09:45:45;27.20;34.70
29007;DHT22;16104;48.642;9.008;2023-07-13T09:50:43;27.40;34.90
29007;DHT22;16104;48.642;9.008;2023-07-13T09:55:41;27.50;34.80
29007;DHT22;16104;48.642;9.008;2023-07-13T10:00:37;27.50;34.40
29007;DHT22;16104;48.642;9.008;2023-07-13T10:05:43;27.60;33.90
29007;DHT22;16104;48.642;9.008;2023-07-13T10:10:39;27.50;33.00
29007;DHT22;16104;48.642;9.008;2023-07-13T10:15:34;27.60;34.40
29007;DHT22;16104;48.642;9.008;2023-07-13T10:20:30;27.60;34.80
29007;DHT22;16104;48.642;9.008;2023-07-13T10:25:31;27.60;34.40
29007;DHT22;16104;48.642;9.008;2023-07-13T10:30:30;27.70;34.30
29007;DHT22;16104;48.642;9.008;2023-07-13T10:35:29;27.80;34.10
29007;DHT22;16104;48.642;9.008;2023-07-13T10:40:33;27.90;34.00
29007;DHT22;16104;48.642;9.008;2023-07-13T10:45:34;28.00;33.30
29007;DHT22;16104;48.642;9.008;2023-07-13T10:50:31;28.00;33.60
29007;DHT22;16104;48.642;9.008;2023-07-13T10:55:40;28.10;33.20
29007;DHT22;16104;48.642;9.008;2023-07-13T11:00:46;28.10;32.70
29007;DHT22;16104;48.642;9.008;2023-07-13T11:05:42;28.20;34.40
29007;DHT22;16104;48.642;9.008;2023-07-13T11:10:56;28.40;33.70
29007;DHT22;16104;48.642;9.008;2023-07-13T11:15:52;28.60;34.20
29007;DHT22;16104;48.642;9.008;2023-07-13T11:20:48;28.80;32.50
29007;DHT22;16104;48.642;9.008;2023-07-13T11:25:44;29.10;31.50
29007;DHT22;16104;48.642;9.008;2023-07-13T11:36:03;29.40;30.90
29007;DHT22;16104;48.642;9.008;2023-07-13T11:41:04;29.60;30.30
29007;DHT22;16104;48.642;9.008;2023-07-13T11:46:20;29.80;29.70
29007;DHT22;16104;48.642;9.008;2023-07-13T11:51:31;30.10;29.20
29007;DHT22;16104;48.642;9.008;2023-07-13T11:56:28;30.40;28.40
29007;DHT22;16104;48.642;9.008;2023-07-13T12:01:27;30.60;28.70
29007;DHT22;16104;48.642;9.008;2023-07-13T12:06:32;30.80;27.50
29007;DHT22;16104;48.642;9.008;2023-07-13T12:11:29;30.80;28.00
29007;DHT22;16104;48.642;9.008;2023-07-13T12:16:32;30.90;27.00
29007;DHT22;16104;48.642;9.008;2023-07-13T12:21:31;30.90;26.20
29007;DHT22;16104;48.642;9.008;2023-07-13T12:26:28;31.00;27.30
29007;DHT22;16104;48.642;9.008;2023-07-13T12:31:26;31.20;26.90
29007;DHT22;16104;48.642;9.008;2023-07-13T12:36:26;31.30;26.20
29007;DHT22;16104;48.642;9.008;2023-07-13T12:41:24;31.40;25.90
29007;DHT22;16104;48.642;9.008;2023-07-13T12:46:23;31.30;27.90
29007;DHT22;16104;48.642;9.008;2023-07-13T12:51:25;31.30;26.00
29007;DHT22;16104;48.642;9.008;2023-07-13T12:56:24;31.30;25.50
29007;DHT22;16104;48.642;9.008;2023-07-13T13:01:22;31.50;26.10
29007;DHT22;16104;48.642;9.008;2023-07-13T13:11:15;31.80;27.10
29007;DHT22;16104;48.642;9.008;2023-07-13T13:21:12;32.00;25.10
29007;DHT22;16104;48.642;9.008;2023-07-13T13:26:11;32.10;25.90
29007;DHT22;16104;48.642;9.008;2023-07-13T13:31:08;32.10;24.40
29007;DHT22;16104;48.642;9.008;2023-07-13T13:36:13;32.10;24.30
29007;DHT22;16104;48.642;9.008;2023-07-13T13:41:11;32.10;25.10
29007;DHT22;16104;48.642;9.008;2023-07-13T13:46:19;32.10;24.90
29007;DHT22;16104;48.642;9.008;2023-07-13T13:51:19;32.20;24.20
29007;DHT22;16104;48.642;9.008;2023-07-13T13:56:18;32.20;24.30
29007;DHT22;16104;48.642;9.008;2023-07-13T14:01:19;32.10;24.40
29007;DHT22;16104;48.642;9.008;2023-07-13T14:06:16;32.00;24.40
29007;DHT22;16104;48.642;9.008;2023-07-13T14:11:14;31.80;24.50
29007;DHT22;16104;48.642;9.008;2023-07-13T14:16:12;31.80;24.80
29007;DHT22;16104;48.642;9.008;2023-07-13T14:21:17;31.90;24.80
29007;DHT22;16104;48.642;9.008;2023-07-13T14:26:21;32.10;24.50
29007;DHT22;16104;48.642;9.008;2023-07-13T14:31:18;32.10;24.30
29007;DHT22;16104;48.642;9.008;2023-07-13T14:41:19;32.00;24.90
29007;DHT22;16104;48.642;9.008;2023-07-13T14:46:29;31.80;25.90
29007;DHT22;16104;48.642;9.008;2023-07-13T14:51:25;31.70;25.40
29007;DHT22;16104;48.642;9.008;2023-07-13T14:56:20;31.80;26.40
29007;DHT22;16104;48.642;9.008;2023-07-13T15:01:16;32.00;25.70
29007;DHT22;16104;48.642;9.008;2023-07-13T15:06:13;32.00;25.50
29007;DHT22;16104;48.642;9.008;2023-07-13T15:11:09;31.90;25.80
29007;DHT22;16104;48.642;9.008;2023-07-13T15:16:18;31.90;25.90
29007;DHT22;16104;48.642;9.008;2023-07-13T15:21:22;31.80;25.90
29007;DHT22;16104;48.642;9.008;2023-07-13T15:26:19;31.80;25.60
29007;DHT22;16104;48.642;9.008;2023-07-13T15:31:25;31.80;25.60
29007;DHT22;16104;48.642;9.008;2023-07-13T15:36:26;31.60;25.20
29007;DHT22;16104;48.642;9.008;2023-07-13T15:41:24;31.30;25.70
29007;DHT22;16104;48.642;9.008;2023-07-13T15:46:22;31.20;25.80
29007;DHT22;16104;48.642;9.008;2023-07-13T15:51:26;31.00;25.80
29007;DHT22;16104;48.642;9.008;2023-07-13T15:56:24;30.90;26.10
29007;DHT22;16104;48.642;9.008;2023-07-13T16:01:20;30.90;26.30
29007;DHT22;16104;48.642;9.008;2023-07-13T16:06:23;30.80;26.30
29007;DHT22;16104;48.642;9.008;2023-07-13T16:11:24;30.70;26.20
29007;DHT22;16104;48.642;9.008;2023-07-13T16:16:21;30.50;26.40
29007;DHT22;16104;48.642;9.008;2023-07-13T16:21:20;30.40;27.00
29007;DHT22;16104;48.642;9.008;2023-07-13T16:26:29;30.50;26.90
29007;DHT22;16104;48.642;9.008;2023-07-13T16:31:34;30.50;26.70
29007;DHT22;16104;48.642;9.008;2023-07-13T16:36:30;30.60;26.60
29007;DHT22;16104;48.642;9.008;2023-07-13T16:41:26;30.60;26.60
29007;DHT22;16104;48.642;9.008;2023-07-13T16:46:22;30.60;26.30
29007;DHT22;16104;48.642;9.008;2023-07-13T16:51:19;30.60;26.20
29007;DHT22;16104;48.642;9.008;2023-07-13T16:56:17;30.40;26.50
29007;DHT22;16104;48.642;9.008;2023-07-13T17:01:13;30.30;26.50
29007;DHT22;16104;48.642;9.008;2023-07-13T17:06:22;30.30;26.80
29007;DHT22;16104;48.642;9.008;2023-07-13T17:11:22;30.20;26.50
29007;DHT22;16104;48.642;9.008;2023-07-13T17:16:18;30.30;26.60
29007;DHT22;16104;48.642;9.008;2023-07-13T17:21:15;30.30;26.80
29007;DHT22;16104;48.642;9.008;2023-07-13T17:26:11;30.30;26.80
29007;DHT22;16104;48.642;9.008;2023-07-13T17:31:06;30.30;26.80
29007;DHT22;16104;48.642;9.008;2023-07-13T17:36:04;30.20;26.70
29007;DHT22;16104;48.642;9.008;2023-07-13T17:41:01;30.10;26.70
29007;DHT22;16104;48.642;9.008;2023-07-13T17:45:58;30.00;26.80
29007;DHT22;16104;48.642;9.008;2023-07-13T17:50:54;29.90;27.00
29007;DHT22;16104;48.642;9.008;2023-07-13T17:55:51;29.80;27.00
29007;DHT22;16104;48.642;9.008;2023-07-13T18:00:49;29.60;27.10
29007;DHT22;16104;48.642;9.008;2023-07-13T18:05:45;29.40;27.20
29007;DHT22;16104;48.642;9.008;2023-07-13T18:10:41;29.10;27.60
29007;DHT22;16104;48.642;9.008;2023-07-13T18:15:37;28.90;27.70
29007;DHT22;16104;48.642;9.008;2023-07-13T18:20:33;28.80;27.90
29007;DHT22;16104;48.642;9.008;2023-07-13T18:25:29;28.60;28.10
29007;DHT22;16104;48.642;9.008;2023-07-13T18:30:24;28.40;28.80
29007;DHT22;16104;48.642;9.008;2023-07-13T18:35:31;28.30;28.50
29007;DHT22;16104;48.642;9.008;2023-07-13T18:40:27;28.00;29.40
29007;DHT22;16104;48.642;9.008;2023-07-13T18:45:24;27.90;29.00
29007;DHT22;16104;48.642;9.008;2023-07-13T18:50:27;27.70;29.20
29007;DHT22;16104;48.642;9.008;2023-07-13T18:55:25;27.50;29.40
29007;DHT22;16104;48.642;9.008;2023-07-13T19:00:21;27.30;29.50
29007;DHT22;16104;48.642;9.008;2023-07-13T19:05:23;27.20;29.80
29007;DHT22;16104;48.642;9.008;2023-07-13T19:10:21;27.00;30.00
29007;DHT22;16104;48.642;9.008;2023-07-13T19:15:19;26.80;30.10
29007;DHT22;16104;48.642;9.008;2023-07-13T19:20:15;26.70;30.30
29007;DHT22;16104;48.642;9.008;2023-07-13T19:25:17;26.60;30.60
29007;DHT22;16104;48.642;9.008;2023-07-13T19:30:14;26.40;30.70
29007;DHT22;16104;48.642;9.008;2023-07-13T19:35:10;26.30;30.90
29007;DHT22;16104;48.642;9.008;2023-07-13T19:40:18;26.20;31.00
29007;DHT22;16104;48.642;9.008;2023-07-13T19:45:20;26.00;31.50
29007;DHT22;16104;48.642;9.008;2023-07-13T19:50:20;25.80;31.60
29007;DHT22;16104;48.642;9.008;2023-07-13T19:55:21;25.70;32.20
29007;DHT22;16104;48.642;9.008;2023-07-13T20:00:20;25.60;32.20
29007;DHT22;16104;48.642;9.008;2023-07-13T20:05:17;25.50;32.30
29007;DHT22;16104;48.642;9.008;2023-07-13T20:10:24;25.40;31.90
29007;DHT22;16104;48.642;9.008;2023-07-13T20:15:22;25.20;32.50
29007;DHT22;16104;48.642;9.008;2023-07-13T20:25:28;25.00;33.00
29007;DHT22;16104;48.642;9.008;2023-07-13T20:30:24;24.90;33.40
29007;DHT22;16104;48.642;9.008;2023-07-13T20:40:20;24.70;34.20
29007;DHT22;16104;48.642;9.008;2023-07-13T20:45:16;24.60;34.10
29007;DHT22;16104;48.642;9.008;2023-07-13T20:50:23;24.50;34.50
29007;DHT22;16104;48.642;9.008;2023-07-13T20:55:22;24.40;34.50
29007;DHT22;16104;48.642;9.008;2023-07-13T21:00:24;24.30;34.40
29007;DHT22;16104;48.642;9.008;2023-07-13T21:05:23;24.20;34.80
29007;DHT22;16104;48.642;9.008;2023-07-13T21:10:20;24.10;35.00
29007;DHT22;16104;48.642;9.008;2023-07-13T21:15:18;24.10;35.00
29007;DHT22;16104;48.642;9.008;2023-07-13T21:20:18;23.90;35.30
29007;DHT22;16104;48.642;9.008;2023-07-13T21:25:26;23.80;35.60
29007;DHT22;16104;48.642;9.008;2023-07-13T21:30:29;23.70;36.20
29007;DHT22;16104;48.642;9.008;2023-07-13T21:35:32;23.60;36.30
29007;DHT22;16104;48.642;9.008;2023-07-13T21:40:30;23.50;36.50
29007;DHT22;16104;48.642;9.008;2023-07-13T21:45:27;23.50;36.80
29007;DHT22;16104;48.642;9.008;2023-07-13T21:50:35;23.40;37.10
29007;DHT22;16104;48.642;9.008;2023-07-13T21:55:31;23.30;38.50
29007;DHT22;16104;48.642;9.008;2023-07-13T22:00:26;23.20;38.20
29007;DHT22;16104;48.642;9.008;2023-07-13T22:05:22;23.10;38.50
29007;DHT22;16104;48.642;9.008;2023-07-13T22:10:22;23.00;39.10
29007;DHT22;16104;48.642;9.008;2023-07-13T22:15:18;22.90;39.80
29007;DHT22;16104;48.642;9.008;2023-07-13T22:20:23;22.80;39.60
29007;DHT22;16104;48.642;9.008;2023-07-13T22:25:22;22.70;40.50
29007;DHT22;16104;48.642;9.008;2023-07-13T22:30:18;22.60;40.10
29007;DHT22;16104;48.642;9.008;2023-07-13T22:35:14;22.50;40.10
29007;DHT22;16104;48.642;9.008;2023-07-13T22:40:16;22.40;40.30
29007;DHT22;16104;48.642;9.008;2023-07-13T22:45:12;22.30;40.50
29007;DHT22;16104;48.642;9.008;2023-07-13T22:50:16;22.30;40.50
29007;DHT22;16104;48.642;9.008;2023-07-13T22:55:13;22.10;40.80
29007;DHT22;16104;48.642;9.008;2023-07-13T23:00:16;22.10;40.80
29007;DHT22;16104;48.642;9.008;2023-07-13T23:05:15;22.00;41.40
29007;DHT22;16104;48.642;9.008;2023-07-13T23:10:16;21.90;41.70
29007;DHT22;16104;48.642;9.008;2023-07-13T23:15:15;21.80;42.00
29007;DHT22;16104;48.642;9.008;2023-07-13T23:20:32;21.70;42.20
29007;DHT22;16104;48.642;9.008;2023-07-13T23:25:30;21.60;42.50
29007;DHT22;16104;48.642;9.008;2023-07-13T23:30:30;21.50;42.50
29007;DHT22;16104;48.642;9.008;2023-07-13T23:35:26;21.50;42.30
29007;DHT22;16104;48.642;9.008;2023-07-13T23:40:25;21.40;42.70
29007;DHT22;16104;48.642;9.008;2023-07-13T23:45:23;21.30;43.20
29007;DHT22;16104;48.642;9.008;2023-07-13T23:50:22;21.20;43.00
29007;DHT22;16104;48.642;9.008;2023-07-13T23:55:21;21.20;42.90
